sensor_id;sensor_type;location;lat;lon;timestamp;P1;durP1;ratioP1;P2;durP2;ratioP2
33170;SDS011;19535;50.672;4.206;2022-12-24T00:01:36;8.55;;;4.25;;
33170;SDS011;19535;50.672;4.206;2022-12-24T00:04:03;7.13;;;4.20;;
33170;SDS011;19535;50.672;4.206;2022-12-24T00:06:30;8.00;;;4.65;;
33170;SDS011;19535;50.672;4.206;2022-12-24T00:08:57;6.80;;;3.75;;
33170;SDS011;19535;50.672;4.206;2022-12-24T00:11:24;7.15;;;4.07;;
33170;SDS011;19535;50.672;4.206;2022-12-24T00:13:50;6.25;;;3.60;;
33170;SDS011;19535;50.672;4.206;2022-12-24T00:16:17;6.95;;;3.88;;
33170;SDS011;19535;50.672;4.206;2022-12-24T00:18:44;7.18;;;3.88;;
33170;SDS011;19535;50.672;4.206;2022-12-24T00:21:13;9.05;;;4.05;;
33170;SDS011;19535;50.672;4.206;2022-12-24T00:23:40;8.05;;;4.13;;
33170;SDS011;19535;50.672;4.206;2022-12-24T00:26:07;6.13;;;3.30;;
33170;SDS011;19535;50.672;4.206;2022-12-24T00:28:34;6.13;;;3.63;;
33170;SDS011;19535;50.672;4.206;2022-12-24T00:31:08;5.88;;;3.38;;
33170;SDS011;19535;50.672;4.206;2022-12-24T00:33:36;6.15;;;3.40;;
33170;SDS011;19535;50.672;4.206;2022-12-24T00:36:04;6.80;;;3.60;;
33170;SDS011;19535;50.672;4.206;2022-12-24T00:38:31;6.13;;;3.38;;
33170;SDS011;19535;50.672;4.206;2022-12-24T00:40:58;7.05;;;3.85;;
33170;SDS011;19535;50.672;4.206;2022-12-24T00:43:30;5.63;;;2.90;;
33170;SDS011;19535;50.672;4.206;2022-12-24T00:45:58;6.40;;;3.22;;
33170;SDS011;19535;50.672;4.206;2022-12-24T00:48:25;6.70;;;3.17;;
33170;SDS011;19535;50.672;4.206;2022-12-24T00:50:52;6.68;;;3.50;;
33170;SDS011;19535;50.672;4.206;2022-12-24T00:53:19;6.45;;;3.40;;
33170;SDS011;19535;50.672;4.206;2022-12-24T00:55:46;8.85;;;3.55;;
33170;SDS011;19535;50.672;4.206;2022-12-24T00:58:13;5.43;;;3.20;;
33170;SDS011;19535;50.672;4.206;2022-12-24T01:00:40;5.70;;;3.30;;
33170;SDS011;19535;50.672;4.206;2022-12-24T01:03:07;7.25;;;3.40;;
33170;SDS011;19535;50.672;4.206;2022-12-24T01:05:34;6.65;;;3.45;;
33170;SDS011;19535;50.672;4.206;2022-12-24T01:08:01;5.47;;;3.20;;
33170;SDS011;19535;50.672;4.206;2022-12-24T01:10:28;5.88;;;3.10;;
33170;SDS011;19535;50.672;4.206;2022-12-24T01:12:55;6.82;;;3.05;;
33170;SDS011;19535;50.672;4.206;2022-12-24T01:15:22;5.95;;;2.97;;
33170;SDS011;19535;50.672;4.206;2022-12-24T01:17:49;6.60;;;3.28;;
33170;SDS011;19535;50.672;4.206;2022-12-24T01:20:16;5.72;;;3.00;;
33170;SDS011;19535;50.672;4.206;2022-12-24T01:22:43;6.72;;;3.30;;
33170;SDS011;19535;50.672;4.206;2022-12-24T01:25:11;5.68;;;2.90;;
33170;SDS011;19535;50.672;4.206;2022-12-24T01:27:38;7.78;;;3.25;;
33170;SDS011;19535;50.672;4.206;2022-12-24T01:30:06;6.32;;;3.15;;
33170;SDS011;19535;50.672;4.206;2022-12-24T01:32:34;5.40;;;2.90;;
33170;SDS011;19535;50.672;4.206;2022-12-24T01:35:01;6.47;;;2.72;;
33170;SDS011;19535;50.672;4.206;2022-12-24T01:37:28;5.63;;;2.83;;
33170;SDS011;19535;50.672;4.206;2022-12-24T01:39:55;5.47;;;3.05;;
33170;SDS011;19535;50.672;4.206;2022-12-24T01:42:48;5.43;;;2.72;;
33170;SDS011;19535;50.672;4.206;2022-12-24T01:45:38;5.53;;;2.97;;
33170;SDS011;19535;50.672;4.206;2022-12-24T01:53:46;4.78;;;2.60;;
33170;SDS011;19535;50.672;4.206;2022-12-24T01:56:15;6.15;;;2.38;;
33170;SDS011;19535;50.672;4.206;2022-12-24T01:58:42;5.53;;;2.80;;
33170;SDS011;19535;50.672;4.206;2022-12-24T02:01:13;6.15;;;2.65;;
33170;SDS011;19535;50.672;4.206;2022-12-24T02:03:40;6.18;;;2.67;;
33170;SDS011;19535;50.672;4.206;2022-12-24T02:06:07;5.60;;;3.08;;
33170;SDS011;19535;50.672;4.206;2022-12-24T02:08:34;4.07;;;2.35;;
33170;SDS011;19535;50.672;4.206;2022-12-24T02:11:12;4.82;;;2.55;;
33170;SDS011;19535;50.672;4.206;2022-12-24T02:13:50;5.10;;;2.63;;
33170;SDS011;19535;50.672;4.206;2022-12-24T02:19:15;6.93;;;2.50;;
33170;SDS011;19535;50.672;4.206;2022-12-24T02:22:15;5.75;;;2.92;;
33170;SDS011;19535;50.672;4.206;2022-12-24T02:28:07;6.22;;;2.28;;
33170;SDS011;19535;50.672;4.206;2022-12-24T02:31:06;4.75;;;2.50;;
33170;SDS011;19535;50.672;4.206;2022-12-24T02:33:48;5.90;;;2.47;;
33170;SDS011;19535;50.672;4.206;2022-12-24T02:39:02;5.72;;;2.67;;
33170;SDS011;19535;50.672;4.206;2022-12-24T02:41:32;3.80;;;2.13;;
33170;SDS011;19535;50.672;4.206;2022-12-24T02:44:20;5.50;;;2.50;;
33170;SDS011;19535;50.672;4.206;2022-12-24T02:46:49;4.82;;;2.30;;
33170;SDS011;19535;50.672;4.206;2022-12-24T02:49:16;4.97;;;2.53;;
33170;SDS011;19535;50.672;4.206;2022-12-24T02:51:43;5.32;;;2.28;;
33170;SDS011;19535;50.672;4.206;2022-12-24T02:54:10;4.57;;;2.35;;
33170;SDS011;19535;50.672;4.206;2022-12-24T03:04:56;4.13;;;2.35;;
33170;SDS011;19535;50.672;4.206;2022-12-24T03:12:46;4.43;;;2.30;;
33170;SDS011;19535;50.672;4.206;2022-12-24T03:15:19;6.13;;;2.80;;
33170;SDS011;19535;50.672;4.206;2022-12-24T03:17:48;5.40;;;2.60;;
33170;SDS011;19535;50.672;4.206;2022-12-24T03:20:18;4.05;;;2.20;;
33170;SDS011;19535;50.672;4.206;2022-12-24T03:22:48;4.60;;;2.38;;
33170;SDS011;19535;50.672;4.206;2022-12-24T03:25:15;4.60;;;2.22;;
33170;SDS011;19535;50.672;4.206;2022-12-24T03:27:43;5.13;;;2.45;;
33170;SDS011;19535;50.672;4.206;2022-12-24T03:30:10;5.55;;;2.55;;
33170;SDS011;19535;50.672;4.206;2022-12-24T03:32:39;5.90;;;2.38;;
33170;SDS011;19535;50.672;4.206;2022-12-24T03:35:07;4.45;;;2.30;;
33170;SDS011;19535;50.672;4.206;2022-12-24T03:37:34;4.25;;;2.35;;
33170;SDS011;19535;50.672;4.206;2022-12-24T03:40:02;6.30;;;2.53;;
33170;SDS011;19535;50.672;4.206;2022-12-24T03:42:30;4.10;;;2.30;;
33170;SDS011;19535;50.672;4.206;2022-12-24T03:44:56;4.03;;;2.17;;
33170;SDS011;19535;50.672;4.206;2022-12-24T03:47:23;4.93;;;2.45;;
33170;SDS011;19535;50.672;4.206;2022-12-24T03:49:51;4.65;;;2.15;;
33170;SDS011;19535;50.672;4.206;2022-12-24T03:52:18;5.07;;;2.20;;
33170;SDS011;19535;50.672;4.206;2022-12-24T03:54:44;5.00;;;2.70;;
33170;SDS011;19535;50.672;4.206;2022-12-24T03:57:11;4.13;;;2.20;;
33170;SDS011;19535;50.672;4.206;2022-12-24T03:59:38;6.13;;;2.67;;
33170;SDS011;19535;50.672;4.206;2022-12-24T04:02:05;6.05;;;3.05;;
33170;SDS011;19535;50.672;4.206;2022-12-24T04:04:32;5.82;;;2.60;;
33170;SDS011;19535;50.672;4.206;2022-12-24T04:07:02;5.72;;;2.17;;
33170;SDS011;19535;50.672;4.206;2022-12-24T04:09:29;5.35;;;2.45;;
33170;SDS011;19535;50.672;4.206;2022-12-24T04:11:56;4.45;;;2.47;;
33170;SDS011;19535;50.672;4.206;2022-12-24T04:14:23;5.35;;;2.40;;
33170;SDS011;19535;50.672;4.206;2022-12-24T04:16:50;5.10;;;2.00;;
33170;SDS011;19535;50.672;4.206;2022-12-24T04:19:17;5.43;;;2.70;;
33170;SDS011;19535;50.672;4.206;2022-12-24T04:21:44;5.07;;;2.42;;
33170;SDS011;19535;50.672;4.206;2022-12-24T04:24:11;4.70;;;2.00;;
33170;SDS011;19535;50.672;4.206;2022-12-24T04:26:37;5.45;;;2.28;;
33170;SDS011;19535;50.672;4.206;2022-12-24T04:29:04;4.65;;;2.35;;
33170;SDS011;19535;50.672;4.206;2022-12-24T04:31:31;5.80;;;2.42;;
33170;SDS011;19535;50.672;4.206;2022-12-24T04:33:58;6.28;;;2.90;;
33170;SDS011;19535;50.672;4.206;2022-12-24T04:36:25;5.07;;;2.40;;
33170;SDS011;19535;50.672;4.206;2022-12-24T04:38:52;5.78;;;2.58;;
33170;SDS011;19535;50.672;4.206;2022-12-24T04:41:19;5.30;;;2.35;;
33170;SDS011;19535;50.672;4.206;2022-12-24T04:43:50;5.88;;;2.50;;
33170;SDS011;19535;50.672;4.206;2022-12-24T04:46:19;5.13;;;2.38;;
33170;SDS011;19535;50.672;4.206;2022-12-24T04:48:48;4.70;;;2.20;;
33170;SDS011;19535;50.672;4.206;2022-12-24T04:51:17;5.57;;;2.58;;
33170;SDS011;19535;50.672;4.206;2022-12-24T04:53:44;7.25;;;2.65;;
33170;SDS011;19535;50.672;4.206;2022-12-24T04:56:15;4.95;;;2.45;;
33170;SDS011;19535;50.672;4.206;2022-12-24T04:58:54;5.18;;;2.38;;
33170;SDS011;19535;50.672;4.206;2022-12-24T05:01:29;6.30;;;2.78;;
33170;SDS011;19535;50.672;4.206;2022-12-24T05:03:57;5.10;;;2.47;;
33170;SDS011;19535;50.672;4.206;2022-12-24T05:06:26;5.30;;;2.30;;
33170;SDS011;19535;50.672;4.206;2022-12-24T05:08:56;4.95;;;2.28;;
33170;SDS011;19535;50.672;4.206;2022-12-24T05:11:23;5.63;;;2.50;;
33170;SDS011;19535;50.672;4.206;2022-12-24T05:13:50;4.85;;;2.42;;
33170;SDS011;19535;50.672;4.206;2022-12-24T05:16:18;5.18;;;2.42;;
33170;SDS011;19535;50.672;4.206;2022-12-24T05:18:45;5.90;;;2.58;;
33170;SDS011;19535;50.672;4.206;2022-12-24T05:21:14;4.63;;;2.50;;
33170;SDS011;19535;50.672;4.206;2022-12-24T05:23:42;6.22;;;2.72;;
33170;SDS011;19535;50.672;4.206;2022-12-24T05:29:05;5.20;;;2.70;;
33170;SDS011;19535;50.672;4.206;2022-12-24T05:31:33;5.53;;;2.50;;
33170;SDS011;19535;50.672;4.206;2022-12-24T05:34:01;5.32;;;2.45;;
33170;SDS011;19535;50.672;4.206;2022-12-24T05:36:28;5.15;;;2.67;;
33170;SDS011;19535;50.672;4.206;2022-12-24T05:38:55;8.15;;;2.78;;
33170;SDS011;19535;50.672;4.206;2022-12-24T05:41:22;3.85;;;2.58;;
33170;SDS011;19535;50.672;4.206;2022-12-24T05:43:49;7.63;;;3.05;;
33170;SDS011;19535;50.672;4.206;2022-12-24T05:46:17;5.78;;;2.45;;
33170;SDS011;19535;50.672;4.206;2022-12-24T05:48:45;5.57;;;2.95;;
33170;SDS011;19535;50.672;4.206;2022-12-24T05:51:14;5.50;;;2.67;;
33170;SDS011;19535;50.672;4.206;2022-12-24T05:53:45;6.70;;;2.65;;
33170;SDS011;19535;50.672;4.206;2022-12-24T05:56:15;5.18;;;2.42;;
33170;SDS011;19535;50.672;4.206;2022-12-24T05:58:45;5.55;;;2.55;;
33170;SDS011;19535;50.672;4.206;2022-12-24T06:01:12;5.75;;;2.80;;
33170;SDS011;19535;50.672;4.206;2022-12-24T06:03:40;4.18;;;2.50;;
33170;SDS011;19535;50.672;4.206;2022-12-24T06:06:11;5.63;;;2.47;;
33170;SDS011;19535;50.672;4.206;2022-12-24T06:08:46;5.83;;;2.97;;
33170;SDS011;19535;50.672;4.206;2022-12-24T06:11:15;4.95;;;2.75;;
33170;SDS011;19535;50.672;4.206;2022-12-24T06:13:43;6.03;;;2.63;;
33170;SDS011;19535;50.672;4.206;2022-12-24T06:16:12;6.78;;;2.85;;
33170;SDS011;19535;50.672;4.206;2022-12-24T06:18:40;4.35;;;2.28;;
33170;SDS011;19535;50.672;4.206;2022-12-24T06:21:08;5.20;;;2.65;;
33170;SDS011;19535;50.672;4.206;2022-12-24T06:23:36;3.97;;;1.77;;
33170;SDS011;19535;50.672;4.206;2022-12-24T06:26:04;6.85;;;2.80;;
33170;SDS011;19535;50.672;4.206;2022-12-24T06:28:33;5.47;;;2.63;;
33170;SDS011;19535;50.672;4.206;2022-12-24T06:31:01;5.93;;;2.40;;
33170;SDS011;19535;50.672;4.206;2022-12-24T06:33:33;4.25;;;2.40;;
33170;SDS011;19535;50.672;4.206;2022-12-24T06:36:00;4.32;;;2.03;;
33170;SDS011;19535;50.672;4.206;2022-12-24T06:38:30;3.90;;;2.10;;
33170;SDS011;19535;50.672;4.206;2022-12-24T06:40:57;3.97;;;2.22;;
33170;SDS011;19535;50.672;4.206;2022-12-24T06:43:25;4.22;;;2.10;;
33170;SDS011;19535;50.672;4.206;2022-12-24T06:45:52;3.72;;;2.30;;
33170;SDS011;19535;50.672;4.206;2022-12-24T06:48:18;4.43;;;2.30;;
33170;SDS011;19535;50.672;4.206;2022-12-24T06:50:45;4.40;;;2.03;;
33170;SDS011;19535;50.672;4.206;2022-12-24T06:53:12;4.30;;;2.28;;
33170;SDS011;19535;50.672;4.206;2022-12-24T06:55:39;3.92;;;2.10;;
33170;SDS011;19535;50.672;4.206;2022-12-24T06:58:06;5.63;;;2.22;;
33170;SDS011;19535;50.672;4.206;2022-12-24T07:00:33;5.07;;;2.20;;
33170;SDS011;19535;50.672;4.206;2022-12-24T07:03:00;5.43;;;2.83;;
33170;SDS011;19535;50.672;4.206;2022-12-24T07:05:27;5.40;;;2.53;;
33170;SDS011;19535;50.672;4.206;2022-12-24T07:07:54;4.85;;;2.30;;
33170;SDS011;19535;50.672;4.206;2022-12-24T07:10:22;5.00;;;2.38;;
33170;SDS011;19535;50.672;4.206;2022-12-24T07:12:49;4.07;;;2.30;;
33170;SDS011;19535;50.672;4.206;2022-12-24T07:15:16;5.38;;;2.50;;
33170;SDS011;19535;50.672;4.206;2022-12-24T07:17:43;4.55;;;2.30;;
33170;SDS011;19535;50.672;4.206;2022-12-24T07:20:11;5.57;;;2.75;;
33170;SDS011;19535;50.672;4.206;2022-12-24T07:22:40;6.07;;;2.58;;
33170;SDS011;19535;50.672;4.206;2022-12-24T07:25:07;5.57;;;2.55;;
33170;SDS011;19535;50.672;4.206;2022-12-24T07:27:35;4.45;;;2.17;;
33170;SDS011;19535;50.672;4.206;2022-12-24T07:30:02;4.88;;;2.42;;
33170;SDS011;19535;50.672;4.206;2022-12-24T07:32:30;5.25;;;2.13;;
33170;SDS011;19535;50.672;4.206;2022-12-24T07:34:57;3.85;;;1.95;;
33170;SDS011;19535;50.672;4.206;2022-12-24T07:37:24;4.63;;;2.20;;
33170;SDS011;19535;50.672;4.206;2022-12-24T07:39:51;5.53;;;2.83;;
33170;SDS011;19535;50.672;4.206;2022-12-24T07:42:18;5.25;;;2.72;;
33170;SDS011;19535;50.672;4.206;2022-12-24T07:44:45;3.60;;;2.33;;
33170;SDS011;19535;50.672;4.206;2022-12-24T07:47:11;5.63;;;2.58;;
33170;SDS011;19535;50.672;4.206;2022-12-24T07:49:38;5.65;;;2.42;;
33170;SDS011;19535;50.672;4.206;2022-12-24T07:52:05;6.63;;;2.85;;
33170;SDS011;19535;50.672;4.206;2022-12-24T07:54:32;5.30;;;2.42;;
33170;SDS011;19535;50.672;4.206;2022-12-24T07:56:59;5.13;;;2.60;;
33170;SDS011;19535;50.672;4.206;2022-12-24T07:59:26;5.55;;;2.42;;
33170;SDS011;19535;50.672;4.206;2022-12-24T08:01:53;3.90;;;2.20;;
33170;SDS011;19535;50.672;4.206;2022-12-24T08:04:20;4.68;;;2.33;;
33170;SDS011;19535;50.672;4.206;2022-12-24T08:06:47;5.97;;;2.88;;
33170;SDS011;19535;50.672;4.206;2022-12-24T08:09:14;5.20;;;2.53;;
33170;SDS011;19535;50.672;4.206;2022-12-24T08:11:41;5.30;;;2.45;;
33170;SDS011;19535;50.672;4.206;2022-12-24T08:14:17;4.93;;;2.35;;
33170;SDS011;19535;50.672;4.206;2022-12-24T08:16:44;6.63;;;2.97;;
33170;SDS011;19535;50.672;4.206;2022-12-24T08:19:11;5.57;;;2.83;;
33170;SDS011;19535;50.672;4.206;2022-12-24T08:21:38;4.97;;;2.15;;
33170;SDS011;19535;50.672;4.206;2022-12-24T08:24:05;5.35;;;2.60;;
33170;SDS011;19535;50.672;4.206;2022-12-24T08:26:32;5.47;;;2.50;;
33170;SDS011;19535;50.672;4.206;2022-12-24T08:28:59;5.35;;;2.50;;
33170;SDS011;19535;50.672;4.206;2022-12-24T08:31:26;4.70;;;2.35;;
33170;SDS011;19535;50.672;4.206;2022-12-24T08:33:53;5.15;;;2.42;;
33170;SDS011;19535;50.672;4.206;2022-12-24T08:36:20;6.05;;;2.50;;
33170;SDS011;19535;50.672;4.206;2022-12-24T08:38:47;5.40;;;2.58;;
33170;SDS011;19535;50.672;4.206;2022-12-24T08:41:14;3.65;;;2.03;;
33170;SDS011;19535;50.672;4.206;2022-12-24T08:43:41;6.47;;;2.80;;
33170;SDS011;19535;50.672;4.206;2022-12-24T08:46:08;4.18;;;2.28;;
33170;SDS011;19535;50.672;4.206;2022-12-24T08:48:36;4.97;;;2.53;;
33170;SDS011;19535;50.672;4.206;2022-12-24T08:51:09;4.35;;;2.45;;
33170;SDS011;19535;50.672;4.206;2022-12-24T08:53:37;4.07;;;2.20;;
33170;SDS011;19535;50.672;4.206;2022-12-24T08:56:05;9.38;;;3.00;;
33170;SDS011;19535;50.672;4.206;2022-12-24T08:58:33;8.95;;;7.40;;
33170;SDS011;19535;50.672;4.206;2022-12-24T09:01:00;14.20;;;9.00;;
33170;SDS011;19535;50.672;4.206;2022-12-24T09:03:34;11.60;;;9.43;;
33170;SDS011;19535;50.672;4.206;2022-12-24T09:06:02;12.73;;;8.30;;
33170;SDS011;19535;50.672;4.206;2022-12-24T09:08:30;10.80;;;7.72;;
33170;SDS011;19535;50.672;4.206;2022-12-24T09:11:04;11.65;;;6.75;;
33170;SDS011;19535;50.672;4.206;2022-12-24T09:13:42;9.00;;;6.57;;
33170;SDS011;19535;50.672;4.206;2022-12-24T09:16:09;9.35;;;6.45;;
33170;SDS011;19535;50.672;4.206;2022-12-24T09:18:37;9.05;;;5.93;;
33170;SDS011;19535;50.672;4.206;2022-12-24T09:21:05;8.35;;;5.75;;
33170;SDS011;19535;50.672;4.206;2022-12-24T09:23:35;7.57;;;5.38;;
33170;SDS011;19535;50.672;4.206;2022-12-24T09:26:11;7.95;;;5.38;;
33170;SDS011;19535;50.672;4.206;2022-12-24T09:28:46;7.15;;;4.80;;
33170;SDS011;19535;50.672;4.206;2022-12-24T09:31:14;6.68;;;4.13;;
33170;SDS011;19535;50.672;4.206;2022-12-24T09:33:42;8.48;;;4.80;;
33170;SDS011;19535;50.672;4.206;2022-12-24T09:36:10;5.97;;;3.65;;
33170;SDS011;19535;50.672;4.206;2022-12-24T09:38:37;6.10;;;3.90;;
33170;SDS011;19535;50.672;4.206;2022-12-24T09:41:26;6.43;;;3.75;;
33170;SDS011;19535;50.672;4.206;2022-12-24T09:44:02;6.18;;;4.18;;
33170;SDS011;19535;50.672;4.206;2022-12-24T09:46:34;7.55;;;4.15;;
33170;SDS011;19535;50.672;4.206;2022-12-24T09:49:09;5.85;;;4.03;;
33170;SDS011;19535;50.672;4.206;2022-12-24T09:51:48;8.98;;;4.00;;
33170;SDS011;19535;50.672;4.206;2022-12-24T09:56:49;6.22;;;3.90;;
33170;SDS011;19535;50.672;4.206;2022-12-24T09:59:19;11.40;;;7.40;;
33170;SDS011;19535;50.672;4.206;2022-12-24T10:01:49;11.52;;;8.00;;
33170;SDS011;19535;50.672;4.206;2022-12-24T10:04:19;9.18;;;7.22;;
33170;SDS011;19535;50.672;4.206;2022-12-24T10:09:55;8.18;;;6.47;;
33170;SDS011;19535;50.672;4.206;2022-12-24T10:21:15;8.32;;;5.07;;
33170;SDS011;19535;50.672;4.206;2022-12-24T10:26:37;8.57;;;5.50;;
33170;SDS011;19535;50.672;4.206;2022-12-24T10:29:17;7.57;;;4.63;;
33170;SDS011;19535;50.672;4.206;2022-12-24T10:34:21;9.38;;;7.68;;
33170;SDS011;19535;50.672;4.206;2022-12-24T10:36:50;12.52;;;8.57;;
33170;SDS011;19535;50.672;4.206;2022-12-24T10:39:21;11.25;;;7.70;;
33170;SDS011;19535;50.672;4.206;2022-12-24T10:41:53;9.93;;;7.43;;
33170;SDS011;19535;50.672;4.206;2022-12-24T10:44:24;14.48;;;7.60;;
33170;SDS011;19535;50.672;4.206;2022-12-24T10:46:53;8.88;;;6.38;;
33170;SDS011;19535;50.672;4.206;2022-12-24T10:49:35;11.43;;;6.50;;
33170;SDS011;19535;50.672;4.206;2022-12-24T10:52:11;9.20;;;5.95;;
33170;SDS011;19535;50.672;4.206;2022-12-24T10:55:25;7.80;;;5.63;;
33170;SDS011;19535;50.672;4.206;2022-12-24T10:57:36;8.80;;;5.55;;
33170;SDS011;19535;50.672;4.206;2022-12-24T11:00:05;9.07;;;5.88;;
33170;SDS011;19535;50.672;4.206;2022-12-24T11:02:33;8.35;;;5.63;;
33170;SDS011;19535;50.672;4.206;2022-12-24T11:05:06;6.32;;;4.65;;
33170;SDS011;19535;50.672;4.206;2022-12-24T11:07:58;9.63;;;5.32;;
33170;SDS011;19535;50.672;4.206;2022-12-24T11:10:28;8.90;;;5.00;;
33170;SDS011;19535;50.672;4.206;2022-12-24T11:12:56;8.43;;;5.10;;
33170;SDS011;19535;50.672;4.206;2022-12-24T11:15:43;7.75;;;5.10;;
33170;SDS011;19535;50.672;4.206;2022-12-24T11:18:13;8.60;;;4.40;;
33170;SDS011;19535;50.672;4.206;2022-12-24T11:20:41;9.25;;;4.50;;
33170;SDS011;19535;50.672;4.206;2022-12-24T11:23:15;6.57;;;4.40;;
33170;SDS011;19535;50.672;4.206;2022-12-24T11:25:46;9.27;;;4.32;;
33170;SDS011;19535;50.672;4.206;2022-12-24T11:28:25;9.48;;;4.60;;
33170;SDS011;19535;50.672;4.206;2022-12-24T11:31:01;9.15;;;3.85;;
33170;SDS011;19535;50.672;4.206;2022-12-24T11:33:29;8.15;;;3.85;;
33170;SDS011;19535;50.672;4.206;2022-12-24T11:35:59;8.43;;;4.40;;
33170;SDS011;19535;50.672;4.206;2022-12-24T11:38:28;8.38;;;4.70;;
33170;SDS011;19535;50.672;4.206;2022-12-24T11:40:57;7.20;;;3.67;;
33170;SDS011;19535;50.672;4.206;2022-12-24T11:43:49;7.07;;;4.07;;
33170;SDS011;19535;50.672;4.206;2022-12-24T11:46:34;7.35;;;3.83;;
33170;SDS011;19535;50.672;4.206;2022-12-24T11:49:20;7.63;;;3.70;;
33170;SDS011;19535;50.672;4.206;2022-12-24T11:54:25;8.48;;;4.18;;
33170;SDS011;19535;50.672;4.206;2022-12-24T12:02:28;6.93;;;3.38;;
33170;SDS011;19535;50.672;4.206;2022-12-24T12:05:02;8.27;;;3.40;;
33170;SDS011;19535;50.672;4.206;2022-12-24T12:07:34;6.65;;;3.15;;
33170;SDS011;19535;50.672;4.206;2022-12-24T12:10:03;6.57;;;3.42;;
33170;SDS011;19535;50.672;4.206;2022-12-24T12:15:48;7.30;;;3.53;;
33170;SDS011;19535;50.672;4.206;2022-12-24T12:18:22;6.30;;;3.35;;
33170;SDS011;19535;50.672;4.206;2022-12-24T12:20:59;6.20;;;3.15;;
33170;SDS011;19535;50.672;4.206;2022-12-24T12:23:32;6.18;;;3.40;;
33170;SDS011;19535;50.672;4.206;2022-12-24T12:26:03;8.02;;;3.30;;
33170;SDS011;19535;50.672;4.206;2022-12-24T12:28:52;6.13;;;3.50;;
33170;SDS011;19535;50.672;4.206;2022-12-24T12:31:29;6.00;;;3.35;;
33170;SDS011;19535;50.672;4.206;2022-12-24T12:34:05;6.22;;;3.53;;
33170;SDS011;19535;50.672;4.206;2022-12-24T12:36:45;7.22;;;2.95;;
33170;SDS011;19535;50.672;4.206;2022-12-24T12:39:14;6.68;;;3.42;;
33170;SDS011;19535;50.672;4.206;2022-12-24T12:53:06;6.75;;;3.20;;
33170;SDS011;19535;50.672;4.206;2022-12-24T12:55:59;7.20;;;3.40;;
33170;SDS011;19535;50.672;4.206;2022-12-24T12:58:34;5.80;;;3.53;;
33170;SDS011;19535;50.672;4.206;2022-12-24T13:02:21;7.55;;;3.75;;
33170;SDS011;19535;50.672;4.206;2022-12-24T13:21:24;6.45;;;2.92;;
33170;SDS011;19535;50.672;4.206;2022-12-24T13:26:42;6.72;;;2.70;;
33170;SDS011;19535;50.672;4.206;2022-12-24T13:47:57;5.40;;;3.17;;
33170;SDS011;19535;50.672;4.206;2022-12-24T13:50:49;7.07;;;3.20;;
33170;SDS011;19535;50.672;4.206;2022-12-24T13:53:22;5.28;;;2.88;;
33170;SDS011;19535;50.672;4.206;2022-12-24T13:58:34;7.90;;;3.15;;
33170;SDS011;19535;50.672;4.206;2022-12-24T14:01:21;8.90;;;3.72;;
33170;SDS011;19535;50.672;4.206;2022-12-24T14:04:01;7.95;;;3.35;;
33170;SDS011;19535;50.672;4.206;2022-12-24T14:06:38;8.52;;;3.85;;
33170;SDS011;19535;50.672;4.206;2022-12-24T14:09:08;10.68;;;4.22;;
33170;SDS011;19535;50.672;4.206;2022-12-24T14:14:27;9.10;;;4.18;;
33170;SDS011;19535;50.672;4.206;2022-12-24T14:17:39;12.05;;;4.15;;
33170;SDS011;19535;50.672;4.206;2022-12-24T14:19:56;12.20;;;4.60;;
33170;SDS011;19535;50.672;4.206;2022-12-24T14:22:26;9.18;;;4.03;;
33170;SDS011;19535;50.672;4.206;2022-12-24T14:24:57;11.35;;;3.78;;
33170;SDS011;19535;50.672;4.206;2022-12-24T14:27:36;12.07;;;4.32;;
33170;SDS011;19535;50.672;4.206;2022-12-24T14:30:13;9.32;;;4.15;;
33170;SDS011;19535;50.672;4.206;2022-12-24T14:32:52;11.23;;;3.85;;
33170;SDS011;19535;50.672;4.206;2022-12-24T14:35:36;13.00;;;4.68;;
33170;SDS011;19535;50.672;4.206;2022-12-24T14:38:04;10.77;;;4.20;;
33170;SDS011;19535;50.672;4.206;2022-12-24T14:48:51;13.23;;;4.72;;
33170;SDS011;19535;50.672;4.206;2022-12-24T14:55:25;8.52;;;3.95;;
33170;SDS011;19535;50.672;4.206;2022-12-24T15:00:51;11.32;;;4.15;;
33170;SDS011;19535;50.672;4.206;2022-12-24T15:03:20;11.65;;;4.25;;
33170;SDS011;19535;50.672;4.206;2022-12-24T15:05:53;10.63;;;4.50;;
33170;SDS011;19535;50.672;4.206;2022-12-24T15:08:26;10.15;;;4.63;;
33170;SDS011;19535;50.672;4.206;2022-12-24T15:10:58;12.68;;;4.85;;
33170;SDS011;19535;50.672;4.206;2022-12-24T15:13:34;10.52;;;4.15;;
33170;SDS011;19535;50.672;4.206;2022-12-24T15:16:03;11.43;;;4.05;;
33170;SDS011;19535;50.672;4.206;2022-12-24T15:18:34;10.90;;;4.20;;
33170;SDS011;19535;50.672;4.206;2022-12-24T15:21:04;8.38;;;3.95;;
33170;SDS011;19535;50.672;4.206;2022-12-24T15:23:34;11.70;;;4.40;;
33170;SDS011;19535;50.672;4.206;2022-12-24T15:26:06;7.47;;;3.80;;
33170;SDS011;19535;50.672;4.206;2022-12-24T15:28:35;8.52;;;3.50;;
33170;SDS011;19535;50.672;4.206;2022-12-24T15:31:05;6.93;;;3.63;;
33170;SDS011;19535;50.672;4.206;2022-12-24T15:33:36;7.88;;;3.85;;
33170;SDS011;19535;50.672;4.206;2022-12-24T15:36:04;14.60;;;11.50;;
33170;SDS011;19535;50.672;4.206;2022-12-24T15:41:05;19.33;;;12.18;;
33170;SDS011;19535;50.672;4.206;2022-12-24T15:43:39;16.02;;;12.30;;
33170;SDS011;19535;50.672;4.206;2022-12-24T15:46:07;22.75;;;12.98;;
33170;SDS011;19535;50.672;4.206;2022-12-24T15:48:33;20.50;;;13.20;;
33170;SDS011;19535;50.672;4.206;2022-12-24T15:51:03;18.67;;;12.60;;
33170;SDS011;19535;50.672;4.206;2022-12-24T15:53:35;18.83;;;12.60;;
33170;SDS011;19535;50.672;4.206;2022-12-24T15:56:10;18.73;;;12.10;;
33170;SDS011;19535;50.672;4.206;2022-12-24T15:58:39;15.05;;;12.13;;
33170;SDS011;19535;50.672;4.206;2022-12-24T16:03:35;15.70;;;11.43;;
33170;SDS011;19535;50.672;4.206;2022-12-24T16:06:05;14.25;;;10.57;;
33170;SDS011;19535;50.672;4.206;2022-12-24T16:08:37;14.60;;;10.77;;
33170;SDS011;19535;50.672;4.206;2022-12-24T16:16:28;14.05;;;9.68;;
33170;SDS011;19535;50.672;4.206;2022-12-24T16:18:57;13.65;;;9.40;;
33170;SDS011;19535;50.672;4.206;2022-12-24T16:21:29;14.00;;;9.60;;
33170;SDS011;19535;50.672;4.206;2022-12-24T16:26:41;13.38;;;8.95;;
33170;SDS011;19535;50.672;4.206;2022-12-24T16:29:09;15.98;;;8.68;;
33170;SDS011;19535;50.672;4.206;2022-12-24T16:31:37;14.35;;;8.52;;
33170;SDS011;19535;50.672;4.206;2022-12-24T16:34:22;12.43;;;8.60;;
33170;SDS011;19535;50.672;4.206;2022-12-24T16:36:51;16.10;;;8.93;;
33170;SDS011;19535;50.672;4.206;2022-12-24T16:39:20;11.02;;;7.50;;
33170;SDS011;19535;50.672;4.206;2022-12-24T16:41:52;10.48;;;7.43;;
33170;SDS011;19535;50.672;4.206;2022-12-24T16:44:38;13.00;;;8.18;;
33170;SDS011;19535;50.672;4.206;2022-12-24T16:47:08;16.13;;;12.02;;
33170;SDS011;19535;50.672;4.206;2022-12-24T16:50:01;20.02;;;16.27;;
33170;SDS011;19535;50.672;4.206;2022-12-24T16:52:30;20.88;;;16.50;;
33170;SDS011;19535;50.672;4.206;2022-12-24T16:54:59;23.70;;;16.37;;
33170;SDS011;19535;50.672;4.206;2022-12-24T16:57:27;22.02;;;16.65;;
33170;SDS011;19535;50.672;4.206;2022-12-24T16:59:54;20.73;;;16.38;;
33170;SDS011;19535;50.672;4.206;2022-12-24T17:02:21;20.30;;;15.00;;
33170;SDS011;19535;50.672;4.206;2022-12-24T17:04:50;20.17;;;15.30;;
33170;SDS011;19535;50.672;4.206;2022-12-24T17:07:17;20.60;;;15.88;;
33170;SDS011;19535;50.672;4.206;2022-12-24T17:09:46;18.75;;;15.20;;
33170;SDS011;19535;50.672;4.206;2022-12-24T17:12:13;21.25;;;15.23;;
33170;SDS011;19535;50.672;4.206;2022-12-24T17:14:40;20.05;;;14.68;;
33170;SDS011;19535;50.672;4.206;2022-12-24T17:17:16;15.57;;;13.43;;
33170;SDS011;19535;50.672;4.206;2022-12-24T17:19:46;20.37;;;14.50;;
33170;SDS011;19535;50.672;4.206;2022-12-24T17:22:13;15.43;;;13.65;;
33170;SDS011;19535;50.672;4.206;2022-12-24T17:24:40;16.92;;;13.70;;
33170;SDS011;19535;50.672;4.206;2022-12-24T17:27:07;14.10;;;12.25;;
33170;SDS011;19535;50.672;4.206;2022-12-24T17:29:34;15.80;;;12.00;;